Isla Martín García, Argentina

2:54 AM ART en Octubre 26, 2014 (GMT -0300)
san isidro | Change Station
CLOSE
Current Station
Estación meteorológica personal
Location: San Isidro, BUENOS AIRES
Altura: 69 ft
Estaciones meteorológicas cercanas

Alt 69 ft 34.47 °S, 58.52 °W | Updated 4 minutes ago

Clear
Despejado
72.0 ° F
Sensación térmica 72 ° F
N
3.4
Viento Variable Viento desde NNE
Gusts 8.3 mph

Hoy
Alta -- | Baja -- ° F
--% Posibilidad de precipitaciones
Ayer
Alta -- | Baja -- ° F
Precip. -- pul
5:58 AM 7:16 PM
Creciente, 6% visible
Presión 29.86 pul
Visibilidad -9999.0 Millas
Nubes
Índice de calor 72 ° F
Punto de rocío 66 ° F
Humedad 80%
Precipitaciones 0.00 pul
Espesor de la nieve No disponible.
UV No disponible.
Polen No disponible.
Calidad del aire No disponible.
Flu Activity No disponible.
METAR SADF 260500Z 36004KT CAVOK 22/18 Q1011

More Conditions Fewer Conditions

Presión 29.86 pul
Visibilidad -9999.0 Millas
Nubes
Índice de calor 72 ° F
Punto de rocío 66 ° F
Humedad 80%
Precipitaciones 0.00 pul
Espesor de la nieve No disponible.
UV No disponible.
Polen No disponible.
Calidad del aire No disponible.
Flu Activity No disponible.
METAR SADF 260500Z 36004KT CAVOK 22/18 Q1011

More Conditions Fewer Conditions

10-Day Weather Forecast

Almanac

Astronomía

Oct. 26, 2014 Salida Puesta
Hora real 5:58 AM ART 7:16 PM ART
Crepúsculo civil 5:32 AM ART 7:42 PM ART
Crepúsculo náutico 5:00 AM ART 8:13 PM ART
Crepúsculo astronómico 4:28 AM ART 8:46 PM ART
Luna 7:54 AM ART 10:03 PM ART
Horas de luz 14h 10m
Horas de luz
13h 17m
Tomorrow will be 1m 58s longer.
Creciente, 6% of the Moon is Illuminated
Hoy
Creciente
Oct 30
Cuarto creciente
Nov 6
Luna llena
Nov 14
Cuarto menguante
Nov 22
Nueva

Extremos de ayer

Máximos del país Bajas del país

Community

WunderPhotos

Upload Photos

1,765,112 ¡fotos cargadas!

Nearby

Calidad del aire

Not available.

Grosos de nieve

Not available.

Actividad de terremotos

Ciudad Distance Mag. Tiempo y dato
No hay informes recientes de la actividad sísmica.
Magnitud mínima muestra es 2,5.

Temperaturas de aguas costeras

Lugar Temperatura
Sin partes meteorológicos de las estaciones

Estaciones meteorológicas cercanas